createdAt,value
2018-07-31T00:00:38.020Z,79.90
2018-07-31T00:03:06.453Z,80.00
2018-07-31T00:05:34.890Z,80.00
2018-07-31T00:08:03.333Z,80.20
2018-07-31T00:10:31.797Z,80.30
2018-07-31T00:13:00.224Z,81.30
2018-07-31T00:15:28.683Z,82.10
2018-07-31T00:17:57.086Z,82.30
2018-07-31T00:20:25.675Z,82.30
2018-07-31T00:22:54.285Z,82.30
2018-07-31T00:25:22.750Z,82.70
2018-07-31T00:27:51.293Z,82.30
2018-07-31T00:30:19.730Z,82.40
2018-07-31T00:32:48.163Z,82.00
2018-07-31T00:35:16.588Z,82.00
2018-07-31T00:37:45.008Z,82.00
2018-07-31T00:40:13.439Z,81.90
2018-07-31T00:42:41.871Z,81.60
2018-07-31T00:45:10.313Z,81.80
2018-07-31T00:47:38.736Z,81.50
2018-07-31T00:50:07.208Z,81.60
2018-07-31T00:52:35.605Z,81.60
2018-07-31T00:55:04.364Z,81.50
2018-07-31T00:57:32.784Z,81.40
2018-07-31T01:00:01.225Z,81.40
2018-07-31T01:02:29.690Z,81.40
2018-07-31T01:04:58.112Z,81.20
2018-07-31T01:07:26.547Z,81.20
2018-07-31T01:09:55.623Z,81.40
2018-07-31T01:12:24.024Z,81.40
2018-07-31T01:14:52.458Z,81.40
2018-07-31T01:17:20.860Z,81.40
2018-07-31T01:19:49.316Z,81.20
2018-07-31T01:24:46.069Z,81.60
2018-07-31T01:27:14.495Z,81.70
2018-07-31T01:29:42.950Z,81.90
2018-07-31T01:32:11.496Z,81.90
2018-07-31T01:34:39.920Z,81.80
2018-07-31T01:37:08.361Z,82.00
2018-07-31T01:39:36.780Z,82.10
2018-07-31T01:42:05.270Z,82.40
2018-07-31T01:44:33.703Z,82.50
2018-07-31T01:47:02.136Z,82.50
2018-07-31T01:49:30.537Z,82.70
2018-07-31T01:54:27.104Z,82.50
2018-07-31T01:56:55.566Z,82.50
2018-07-31T01:59:23.989Z,82.70
2018-07-31T02:01:52.447Z,82.70
2018-07-31T02:04:20.869Z,82.60
2018-07-31T02:06:49.315Z,82.60
2018-07-31T02:09:17.711Z,82.60
2018-07-31T02:11:46.177Z,82.70
2018-07-31T02:14:14.580Z,82.60
2018-07-31T02:16:43.064Z,82.60
2018-07-31T02:19:11.488Z,82.70
2018-07-31T02:21:39.929Z,82.60
2018-07-31T02:24:08.329Z,82.70
2018-07-31T02:26:36.787Z,82.60
2018-07-31T02:29:05.248Z,82.70
2018-07-31T02:31:33.667Z,82.90
2018-07-31T02:34:02.094Z,83.00
2018-07-31T02:36:30.541Z,83.00
2018-07-31T02:38:58.948Z,83.10
2018-07-31T02:41:27.378Z,83.30
2018-07-31T02:43:55.823Z,83.50
2018-07-31T02:46:24.276Z,83.50
2018-07-31T02:48:52.727Z,83.30
2018-07-31T02:51:21.204Z,83.30
2018-07-31T02:56:17.750Z,83.10
2018-07-31T02:58:46.159Z,83.10
2018-07-31T03:01:14.636Z,83.20
2018-07-31T03:03:43.052Z,83.10
2018-07-31T03:06:11.488Z,83.00
2018-07-31T03:11:08.092Z,83.00
2018-07-31T03:13:36.517Z,83.00
2018-07-31T03:16:04.980Z,83.20
2018-07-31T03:18:33.413Z,83.20
2018-07-31T03:21:01.845Z,83.20
2018-07-31T03:23:30.254Z,83.20
2018-07-31T03:25:58.704Z,83.30
2018-07-31T03:28:27.112Z,83.20
2018-07-31T03:30:55.511Z,83.40
2018-07-31T03:33:23.944Z,83.20
2018-07-31T03:38:20.500Z,83.10
2018-07-31T03:43:17.104Z,83.00
2018-07-31T03:45:45.513Z,83.00
2018-07-31T03:48:14.094Z,83.00
2018-07-31T03:50:42.506Z,83.00
2018-07-31T03:53:10.996Z,83.10
2018-07-31T03:55:39.461Z,83.20
2018-07-31T03:58:07.852Z,83.20
2018-07-31T04:00:44.510Z,83.00
2018-07-31T04:03:12.956Z,83.00
2018-07-31T04:05:41.344Z,83.00
2018-07-31T04:08:09.900Z,83.00
2018-07-31T04:10:38.340Z,82.90
2018-07-31T04:13:06.772Z,82.90
2018-07-31T04:15:35.216Z,83.00
2018-07-31T04:18:03.676Z,83.00
2018-07-31T04:20:32.264Z,83.00
2018-07-31T04:23:00.717Z,82.90
2018-07-31T04:25:29.136Z,82.90
2018-07-31T04:27:57.602Z,82.70
2018-07-31T04:30:26.029Z,82.70
2018-07-31T04:32:54.465Z,82.70
2018-07-31T04:35:22.878Z,83.10
2018-07-31T04:37:51.317Z,83.80
2018-07-31T04:40:19.712Z,84.30
2018-07-31T04:42:48.188Z,84.60
2018-07-31T04:45:16.603Z,84.70
2018-07-31T04:47:45.028Z,84.70
2018-07-31T04:50:13.561Z,84.50
2018-07-31T04:52:41.968Z,84.50
2018-07-31T04:55:10.377Z,84.50
2018-07-31T04:57:38.844Z,84.40
2018-07-31T05:00:08.608Z,84.30
2018-07-31T05:02:37.869Z,84.50
2018-07-31T05:05:06.294Z,84.70
2018-07-31T05:07:39.866Z,84.70
2018-07-31T05:10:10.866Z,84.60
2018-07-31T05:12:39.805Z,84.10
2018-07-31T05:15:08.259Z,84.00
2018-07-31T05:17:37.550Z,83.80
2018-07-31T05:20:06.816Z,83.50
2018-07-31T05:22:35.245Z,83.70
2018-07-31T05:25:03.703Z,83.30
2018-07-31T05:27:32.234Z,83.20
2018-07-31T05:30:00.690Z,82.50
2018-07-31T05:32:29.184Z,82.10
2018-07-31T05:34:57.616Z,81.70
2018-07-31T05:37:26.013Z,81.20
2018-07-31T05:39:54.561Z,81.20
2018-07-31T05:42:22.969Z,80.50
2018-07-31T05:44:51.453Z,80.80
2018-07-31T05:47:19.855Z,80.00
2018-07-31T05:49:48.289Z,80.00
2018-07-31T05:52:16.708Z,80.10
2018-07-31T05:54:45.164Z,79.00
2018-07-31T05:57:13.625Z,78.60
2018-07-31T05:59:42.084Z,78.90
2018-07-31T06:02:10.577Z,78.10
2018-07-31T06:07:07.125Z,77.30
2018-07-31T06:09:35.646Z,76.20
2018-07-31T06:12:04.112Z,75.70
2018-07-31T06:14:32.553Z,75.10
2018-07-31T06:17:00.969Z,74.60
2018-07-31T06:19:29.411Z,73.70
2018-07-31T06:21:57.827Z,72.50
2018-07-31T06:24:26.261Z,70.10
2018-07-31T06:26:54.723Z,68.90
2018-07-31T06:29:23.394Z,67.40
2018-07-31T06:31:51.845Z,66.10
2018-07-31T06:34:20.263Z,64.90
2018-07-31T06:36:48.718Z,63.50
2018-07-31T06:41:45.264Z,61.50
2018-07-31T06:44:13.748Z,61.00
2018-07-31T06:49:10.331Z,59.60
2018-07-31T06:51:38.784Z,59.30
2018-07-31T06:54:07.292Z,59.20
2018-07-31T06:56:35.759Z,57.70
2018-07-31T06:59:04.217Z,57.80
2018-07-31T07:01:32.658Z,57.60
2018-07-31T07:04:01.110Z,57.80
2018-07-31T07:06:29.516Z,57.60
2018-07-31T07:08:57.930Z,55.50
2018-07-31T07:11:26.352Z,56.90
2018-07-31T07:13:54.820Z,53.20
2018-07-31T07:16:23.260Z,51.70
2018-07-31T07:18:52.533Z,51.30
2018-07-31T07:23:49.070Z,50.80
2018-07-31T07:26:17.512Z,48.50
2018-07-31T07:28:45.917Z,47.20
2018-07-31T07:31:14.379Z,46.10
2018-07-31T07:33:42.842Z,46.20
2018-07-31T07:36:11.300Z,46.50
2018-07-31T07:38:39.721Z,45.70
2018-07-31T07:41:08.332Z,44.80
2018-07-31T07:43:36.775Z,47.30
2018-07-31T07:46:05.223Z,45.70
2018-07-31T07:48:33.805Z,45.30
2018-07-31T07:51:02.214Z,46.20
2018-07-31T07:53:30.623Z,45.80
2018-07-31T07:55:59.081Z,44.50
2018-07-31T07:58:27.481Z,44.90
2018-07-31T08:00:55.953Z,44.20
2018-07-31T08:03:24.388Z,43.50
2018-07-31T08:05:53.356Z,43.90
2018-07-31T08:08:21.940Z,43.80
2018-07-31T08:10:50.406Z,44.80
2018-07-31T08:13:18.860Z,44.80
2018-07-31T08:15:47.290Z,45.80
2018-07-31T08:18:15.850Z,45.90
2018-07-31T08:20:44.282Z,46.70
2018-07-31T08:23:12.890Z,45.80
2018-07-31T08:25:41.361Z,44.80
2018-07-31T08:28:09.773Z,45.20
2018-07-31T08:30:38.222Z,43.80
2018-07-31T08:33:06.676Z,43.70
2018-07-31T08:35:35.144Z,44.50
2018-07-31T08:38:03.553Z,44.00
2018-07-31T08:40:31.985Z,44.10
2018-07-31T08:43:00.409Z,44.40
2018-07-31T08:45:28.980Z,43.80
2018-07-31T08:47:57.375Z,44.50
2018-07-31T08:50:25.843Z,43.90
2018-07-31T08:52:54.368Z,43.80
2018-07-31T08:55:22.765Z,45.50
2018-07-31T09:00:19.456Z,44.60
2018-07-31T09:02:48.033Z,44.40
2018-07-31T09:05:16.452Z,44.10
2018-07-31T09:07:44.913Z,43.60
2018-07-31T09:10:13.349Z,42.90
2018-07-31T09:12:41.750Z,44.50
2018-07-31T09:15:10.289Z,46.30
2018-07-31T09:17:38.682Z,45.30
2018-07-31T09:20:07.116Z,44.90
2018-07-31T09:22:35.543Z,44.90
2018-07-31T09:25:04.001Z,44.20
2018-07-31T09:27:32.396Z,43.70
2018-07-31T09:30:00.881Z,44.10
2018-07-31T09:32:34.708Z,43.80
2018-07-31T09:35:03.121Z,43.80
2018-07-31T09:37:31.517Z,43.70
2018-07-31T09:39:59.909Z,44.20
2018-07-31T09:42:28.301Z,43.70
2018-07-31T09:44:56.728Z,43.30
2018-07-31T09:47:25.131Z,43.10
2018-07-31T09:49:53.521Z,43.70
2018-07-31T09:52:21.937Z,44.00
2018-07-31T09:54:50.336Z,43.80
2018-07-31T09:57:18.757Z,43.70
2018-07-31T09:59:47.129Z,43.90
2018-07-31T10:02:15.534Z,44.50
2018-07-31T10:04:43.912Z,44.50
2018-07-31T10:07:12.320Z,44.70
2018-07-31T10:09:40.726Z,45.50
2018-07-31T10:12:09.267Z,44.80
2018-07-31T10:14:37.561Z,44.60
2018-07-31T10:17:05.964Z,45.40
2018-07-31T10:19:34.357Z,45.40
2018-07-31T10:22:02.976Z,46.20
2018-07-31T10:24:31.404Z,44.70
2018-07-31T10:26:59.784Z,43.70
2018-07-31T10:29:28.147Z,44.00
2018-07-31T10:31:56.545Z,43.80
2018-07-31T10:34:25.007Z,43.70
2018-07-31T10:36:53.652Z,42.90
2018-07-31T10:39:22.030Z,42.80
2018-07-31T10:41:50.421Z,43.60
2018-07-31T10:44:18.851Z,43.30
2018-07-31T10:46:47.230Z,44.10
2018-07-31T10:49:15.628Z,44.70
2018-07-31T10:51:44.023Z,45.70
2018-07-31T10:54:12.480Z,47.00
2018-07-31T10:56:40.860Z,48.10
2018-07-31T10:59:09.424Z,48.50
2018-07-31T11:01:37.792Z,48.50
2018-07-31T11:04:06.243Z,49.70
2018-07-31T11:06:34.866Z,51.20
2018-07-31T11:09:03.853Z,52.50
2018-07-31T11:11:32.280Z,50.90
2018-07-31T11:14:00.721Z,51.80
2018-07-31T11:16:29.148Z,52.70
2018-07-31T11:18:57.607Z,52.60
2018-07-31T11:21:26.065Z,53.80
2018-07-31T11:23:54.672Z,53.30
2018-07-31T11:26:23.068Z,54.70
2018-07-31T11:28:51.486Z,54.70
2018-07-31T11:31:19.935Z,54.40
2018-07-31T11:33:48.388Z,54.50
2018-07-31T11:36:16.826Z,54.90
2018-07-31T11:38:45.285Z,54.70
2018-07-31T11:41:13.736Z,54.80
2018-07-31T11:43:42.236Z,55.60
2018-07-31T11:46:10.649Z,54.80
2018-07-31T11:48:39.080Z,54.40
2018-07-31T11:51:07.529Z,54.10
2018-07-31T11:53:35.988Z,54.80
2018-07-31T11:56:04.415Z,54.90
2018-07-31T11:58:33.137Z,55.20
2018-07-31T12:01:01.584Z,54.70
2018-07-31T12:03:30.037Z,55.10
2018-07-31T12:05:58.444Z,55.80
2018-07-31T12:08:26.940Z,54.50
2018-07-31T12:13:23.532Z,53.60
2018-07-31T12:15:51.976Z,53.40
2018-07-31T12:18:20.460Z,53.00
2018-07-31T12:20:49.033Z,53.90
2018-07-31T12:23:17.445Z,55.00
2018-07-31T12:25:45.912Z,55.10
2018-07-31T12:28:14.554Z,55.90
2018-07-31T12:30:43.007Z,55.30
2018-07-31T12:33:11.532Z,55.50
2018-07-31T12:35:40.013Z,55.50
2018-07-31T12:38:08.540Z,56.20
2018-07-31T12:40:37.000Z,55.90
2018-07-31T12:45:33.604Z,56.10
2018-07-31T12:48:02.021Z,55.20
2018-07-31T12:50:30.456Z,55.10
2018-07-31T12:52:58.877Z,55.00
2018-07-31T12:55:27.324Z,55.10
2018-07-31T12:57:55.782Z,55.00
2018-07-31T13:00:24.200Z,55.50
2018-07-31T13:02:52.604Z,55.60
2018-07-31T13:05:21.076Z,54.70
2018-07-31T13:07:49.503Z,55.30
2018-07-31T13:10:17.956Z,56.20
2018-07-31T13:15:14.719Z,56.10
2018-07-31T13:17:43.142Z,55.30
2018-07-31T13:20:11.727Z,55.90
2018-07-31T13:22:40.197Z,55.60
2018-07-31T13:25:08.650Z,55.80
2018-07-31T13:27:37.159Z,56.10
2018-07-31T13:30:06.221Z,55.80
2018-07-31T13:32:34.639Z,54.90
2018-07-31T13:35:03.120Z,54.80
2018-07-31T13:37:31.580Z,54.80
2018-07-31T13:40:00.045Z,54.80
2018-07-31T13:42:28.464Z,54.00
2018-07-31T13:44:57.360Z,55.10
2018-07-31T13:47:25.752Z,55.20
2018-07-31T13:49:54.204Z,56.00
2018-07-31T13:52:22.654Z,55.10
2018-07-31T13:54:51.136Z,55.20
2018-07-31T13:57:19.576Z,55.20
2018-07-31T13:59:48.044Z,54.90
2018-07-31T14:02:16.495Z,54.20
2018-07-31T14:04:44.956Z,54.40
2018-07-31T14:07:13.377Z,54.40
2018-07-31T14:09:41.832Z,55.30
2018-07-31T14:12:10.239Z,55.20
2018-07-31T14:14:38.646Z,55.20
2018-07-31T14:17:07.092Z,56.10
2018-07-31T14:19:35.528Z,55.80
2018-07-31T14:22:03.980Z,56.10
2018-07-31T14:24:32.472Z,56.70
2018-07-31T14:27:00.913Z,56.10
2018-07-31T14:29:29.303Z,56.20
2018-07-31T14:31:57.758Z,56.20
2018-07-31T14:34:26.161Z,56.50
2018-07-31T14:36:54.612Z,56.00
2018-07-31T14:39:23.081Z,56.60
2018-07-31T14:41:51.509Z,56.90
2018-07-31T14:46:48.100Z,56.60
2018-07-31T14:49:16.632Z,56.50
2018-07-31T14:51:45.101Z,55.90
2018-07-31T14:54:13.616Z,56.00
2018-07-31T14:56:41.956Z,56.10
2018-07-31T14:59:10.374Z,56.00
2018-07-31T15:01:39.010Z,55.90
2018-07-31T15:04:07.448Z,56.00
2018-07-31T15:06:35.887Z,55.60
2018-07-31T15:09:06.033Z,56.60
2018-07-31T15:11:34.475Z,55.90
2018-07-31T15:14:02.924Z,55.80
2018-07-31T15:16:31.352Z,55.00
2018-07-31T15:18:59.784Z,55.60
2018-07-31T15:21:28.216Z,55.00
2018-07-31T15:23:56.623Z,54.70
2018-07-31T15:26:25.077Z,55.20
2018-07-31T15:28:53.497Z,55.10
2018-07-31T15:31:21.933Z,55.80
2018-07-31T15:33:50.364Z,55.20
2018-07-31T15:38:46.920Z,55.80
2018-07-31T15:41:15.360Z,55.70
2018-07-31T15:43:43.828Z,55.20
2018-07-31T15:46:12.301Z,55.70
2018-07-31T15:48:40.769Z,55.50
2018-07-31T15:51:09.201Z,55.80
2018-07-31T15:53:37.676Z,55.10
2018-07-31T15:56:06.466Z,55.50
2018-07-31T15:58:34.948Z,55.70
2018-07-31T16:01:03.404Z,55.10
2018-07-31T16:03:31.898Z,55.30
2018-07-31T16:06:00.325Z,55.30
2018-07-31T16:08:28.785Z,55.30
2018-07-31T16:10:57.236Z,55.30
2018-07-31T16:13:25.737Z,55.20
2018-07-31T16:15:54.184Z,55.30
2018-07-31T16:20:50.780Z,55.70
2018-07-31T16:23:19.295Z,55.50
2018-07-31T16:25:47.685Z,55.60
2018-07-31T16:28:16.154Z,55.80
2018-07-31T16:30:44.578Z,55.50
2018-07-31T16:33:13.046Z,55.60
2018-07-31T16:35:41.442Z,55.50
2018-07-31T16:38:09.916Z,55.50
2018-07-31T16:40:38.377Z,55.80
2018-07-31T16:43:06.864Z,56.90
2018-07-31T16:45:35.280Z,57.20
2018-07-31T16:48:03.732Z,56.10
2018-07-31T16:50:32.143Z,56.40
2018-07-31T16:53:00.593Z,55.30
2018-07-31T16:55:29.036Z,55.00
2018-07-31T16:57:57.479Z,55.10
2018-07-31T17:00:25.938Z,54.90
2018-07-31T17:02:54.416Z,54.90
2018-07-31T17:05:22.856Z,55.70
2018-07-31T17:07:51.353Z,55.50
2018-07-31T17:10:19.743Z,55.20
2018-07-31T17:12:48.188Z,55.10
2018-07-31T17:15:16.652Z,55.10
2018-07-31T17:17:45.146Z,55.80
2018-07-31T17:20:13.589Z,55.80
2018-07-31T17:22:42.045Z,55.60
2018-07-31T17:25:10.481Z,55.50
2018-07-31T17:27:38.918Z,56.90
2018-07-31T17:32:35.489Z,55.90
2018-07-31T17:35:04.016Z,55.90
2018-07-31T17:37:32.486Z,56.10
2018-07-31T17:40:00.897Z,55.80
2018-07-31T17:44:57.526Z,57.00
2018-07-31T17:47:25.946Z,57.90
2018-07-31T17:49:54.400Z,58.30
2018-07-31T17:52:22.806Z,58.60
2018-07-31T17:54:51.439Z,58.60
2018-07-31T17:57:19.840Z,58.70
2018-07-31T18:02:16.379Z,58.70
2018-07-31T18:07:12.950Z,58.40
2018-07-31T18:09:41.417Z,59.80
2018-07-31T18:12:09.853Z,60.30
2018-07-31T18:14:38.316Z,60.90
2018-07-31T18:17:07.060Z,61.00
2018-07-31T18:19:35.500Z,60.10
2018-07-31T18:22:04.556Z,61.20
2018-07-31T18:24:33.009Z,60.80
2018-07-31T18:27:01.434Z,61.70
2018-07-31T18:29:29.863Z,62.30
2018-07-31T18:31:58.401Z,62.30
2018-07-31T18:34:26.821Z,63.50
2018-07-31T18:36:55.244Z,64.20
2018-07-31T18:39:23.712Z,64.20
2018-07-31T18:41:52.139Z,66.20
2018-07-31T18:44:20.848Z,66.60
2018-07-31T18:46:49.292Z,66.10
2018-07-31T18:49:17.725Z,67.00
2018-07-31T18:51:46.180Z,67.20
2018-07-31T18:54:14.620Z,67.30
2018-07-31T18:59:11.192Z,68.00
2018-07-31T19:01:39.847Z,68.10
2018-07-31T19:04:08.249Z,68.80
2018-07-31T19:06:36.676Z,69.10
2018-07-31T19:09:10.338Z,69.40
2018-07-31T19:11:39.541Z,69.90
2018-07-31T19:14:08.049Z,69.60
2018-07-31T19:16:36.514Z,69.70
2018-07-31T19:19:05.259Z,69.70
2018-07-31T19:21:33.692Z,69.90
2018-07-31T19:24:02.141Z,69.80
2018-07-31T19:26:30.584Z,70.20
2018-07-31T19:31:27.129Z,70.50
2018-07-31T19:33:55.642Z,70.60
2018-07-31T19:36:24.001Z,70.90
2018-07-31T19:38:52.577Z,71.10
2018-07-31T19:41:21.032Z,70.90
2018-07-31T19:46:17.941Z,71.20
2018-07-31T19:48:46.397Z,71.40
2018-07-31T19:51:14.832Z,71.30
2018-07-31T19:53:43.244Z,71.40
2018-07-31T19:56:11.781Z,71.40
2018-07-31T19:58:40.227Z,71.70
2018-07-31T20:01:08.758Z,71.90
2018-07-31T20:03:37.134Z,72.00
2018-07-31T20:06:05.610Z,72.00
2018-07-31T20:08:34.025Z,72.10
2018-07-31T20:11:02.475Z,72.10
2018-07-31T20:13:30.913Z,72.30
2018-07-31T20:15:59.520Z,72.50
2018-07-31T20:20:56.177Z,72.40
2018-07-31T20:23:24.606Z,72.50
2018-07-31T20:25:53.054Z,72.60
2018-07-31T20:28:21.545Z,72.60
2018-07-31T20:30:50.025Z,72.50
2018-07-31T20:33:18.420Z,72.60
2018-07-31T20:35:46.848Z,72.90
2018-07-31T20:38:15.258Z,72.90
2018-07-31T20:40:43.745Z,73.10
2018-07-31T20:43:12.259Z,73.50
2018-07-31T20:45:40.724Z,73.70
2018-07-31T20:48:09.136Z,74.00
2018-07-31T20:50:37.618Z,74.10
2018-07-31T20:53:06.468Z,74.10
2018-07-31T20:55:34.931Z,74.20
2018-07-31T20:58:03.369Z,74.30
2018-07-31T21:00:31.831Z,74.60
2018-07-31T21:03:00.513Z,74.80
2018-07-31T21:05:28.954Z,75.10
2018-07-31T21:07:57.385Z,75.30
2018-07-31T21:10:25.901Z,75.40
2018-07-31T21:12:54.335Z,75.50
2018-07-31T21:15:22.864Z,75.60
2018-07-31T21:17:51.436Z,75.50
2018-07-31T21:20:19.871Z,75.60
2018-07-31T21:22:48.262Z,75.50
2018-07-31T21:25:16.780Z,75.50
2018-07-31T21:27:45.196Z,75.50
2018-07-31T21:30:13.619Z,75.40
2018-07-31T21:32:42.064Z,75.40
2018-07-31T21:35:10.511Z,75.30
2018-07-31T21:37:38.980Z,75.40
2018-07-31T21:42:35.610Z,75.60
2018-07-31T21:45:04.117Z,75.80
2018-07-31T21:47:32.567Z,76.10
2018-07-31T21:50:00.975Z,76.60
2018-07-31T21:52:29.432Z,76.90
2018-07-31T21:54:57.846Z,76.90
2018-07-31T21:57:26.393Z,76.70
2018-07-31T21:59:54.844Z,76.30
2018-07-31T22:02:23.293Z,76.80
2018-07-31T22:04:51.728Z,76.90
2018-07-31T22:07:20.150Z,76.90
2018-07-31T22:09:48.551Z,76.70
2018-07-31T22:12:17.356Z,76.80
2018-07-31T22:14:45.732Z,76.90
2018-07-31T22:17:14.168Z,76.70
2018-07-31T22:19:42.600Z,76.80
2018-07-31T22:22:11.028Z,76.90
2018-07-31T22:24:39.585Z,76.90
2018-07-31T22:27:08.048Z,76.90
2018-07-31T22:29:36.450Z,76.80
2018-07-31T22:32:04.885Z,76.90
2018-07-31T22:34:33.337Z,76.60
2018-07-31T22:37:01.963Z,76.90
2018-07-31T22:39:30.372Z,77.10
2018-07-31T22:44:27.061Z,77.80
2018-07-31T22:46:55.499Z,78.00
2018-07-31T22:49:23.964Z,77.80
2018-07-31T22:51:52.445Z,77.70
2018-07-31T22:54:20.853Z,77.50
2018-07-31T22:56:49.276Z,77.50
2018-07-31T22:59:17.697Z,77.50
2018-07-31T23:01:46.240Z,77.60
2018-07-31T23:04:14.864Z,77.60
2018-07-31T23:06:43.289Z,77.30
2018-07-31T23:09:12.465Z,77.40
2018-07-31T23:11:40.941Z,77.20
2018-07-31T23:14:09.527Z,77.20
2018-07-31T23:19:06.294Z,77.40
2018-07-31T23:21:34.951Z,77.50
2018-07-31T23:26:31.469Z,77.40
2018-07-31T23:28:59.952Z,77.10
2018-07-31T23:31:28.359Z,77.00
2018-07-31T23:33:56.956Z,77.00
2018-07-31T23:38:53.516Z,77.60
2018-07-31T23:41:22.763Z,78.10
2018-07-31T23:43:51.214Z,78.00
2018-07-31T23:46:20.108Z,78.10
2018-07-31T23:48:48.581Z,78.00
2018-07-31T23:51:16.993Z,78.30
2018-07-31T23:53:45.460Z,78.70
2018-07-31T23:56:13.884Z,78.90
2018-07-31T23:58:42.380Z,78.70
